Time;durP1;ratioP1;P1;durP2;ratioP2;P2;SDS_P1;SDS_P2;PMS_P1;PMS_P2;Temp;Humidity;BMP_temperature;BMP_pressure;BME280_temperature;BME280_humidity;BME280_pressure;Samples;Min_cycle;Max_cycle;Signal;HPM_P1;HPM_P2
2022/11/20 00:01:29;;;;;;;0.28;0.28;;;;;;;-4.52;100.00;101316.91;5025460;28;20068;-71
2022/11/20 00:03:55;;;;;;;0.20;0.20;;;;;;;-4.49;100.00;101317.78;5005433;28;20144;-72
2022/11/20 00:06:22;;;;;;;0.30;0.30;;;;;;;-4.50;100.00;101316.88;5020078;28;20033;-72
2022/11/20 00:08:48;;;;;;;0.20;0.20;;;;;;;-4.52;100.00;101295.94;5015791;28;20037;-72
2022/11/20 00:11:19;;;;;;;0.22;0.22;;;;;;;-4.50;100.00;101306.41;5016783;28;20028;-72
2022/11/20 00:13:45;;;;;;;0.30;0.30;;;;;;;-4.55;100.00;101287.25;5020853;28;20113;-72
2022/11/20 00:16:11;;;;;;;0.30;0.30;;;;;;;-4.45;100.00;101309.00;5021844;28;20112;-72
2022/11/20 00:18:37;;;;;;;0.20;0.20;;;;;;;-4.59;100.00;101285.53;5021990;28;20026;-72
2022/11/20 00:21:03;;;;;;;0.20;0.20;;;;;;;-4.69;100.00;101284.72;5017865;28;20034;-72
2022/11/20 00:23:29;;;;;;;0.30;0.30;;;;;;;-4.66;100.00;101292.56;5023456;28;20467;-72
2022/11/20 00:25:54;;;;;;;0.20;0.20;;;;;;;-4.64;100.00;101290.81;5028432;28;20030;-72
2022/11/20 00:28:19;;;;;;;0.20;0.20;;;;;;;-4.74;100.00;101276.88;5021443;28;20033;-72
2022/11/20 00:30:45;;;;;;;0.30;0.30;;;;;;;-4.64;100.00;101296.06;5022156;28;20119;-72
2022/11/20 00:33:10;;;;;;;0.20;0.20;;;;;;;-4.83;100.00;101293.53;5022936;28;20021;-72
2022/11/20 00:35:35;;;;;;;0.20;0.20;;;;;;;-4.80;100.00;101297.03;5030546;28;20040;-72
2022/11/20 00:38:00;;;;;;;0.20;0.20;;;;;;;-4.85;100.00;101291.81;5023190;28;20112;-72
2022/11/20 00:40:26;;;;;;;0.30;0.30;;;;;;;-4.95;100.00;101277.91;5021040;28;20033;-72
2022/11/20 00:42:51;;;;;;;0.30;0.30;;;;;;;-4.89;100.00;101285.72;5033423;28;20040;-72
2022/11/20 00:45:16;;;;;;;0.30;0.30;;;;;;;-5.12;100.00;101251.84;5024253;28;20037;-72
2022/11/20 00:47:42;;;;;;;0.30;0.30;;;;;;;-5.01;100.00;101270.94;5023761;28;20108;-71
2022/11/20 00:50:07;;;;;;;0.30;0.30;;;;;;;-4.90;100.00;101291.81;5023888;28;20025;-71
2022/11/20 00:52:33;;;;;;;0.30;0.30;;;;;;;-5.02;100.00;101265.72;5022230;28;20419;-72
2022/11/20 00:54:58;;;;;;;0.30;0.30;;;;;;;-4.95;100.00;101258.69;5026854;28;20029;-72
2022/11/20 00:57:23;;;;;;;0.20;0.20;;;;;;;-5.00;100.00;101256.97;5023215;28;20025;-71
2022/11/20 00:59:48;;;;;;;0.30;0.30;;;;;;;-4.98;100.00;101278.78;5025826;28;20044;-72
2022/11/20 01:02:16;;;;;;;0.30;0.30;;;;;;;-5.09;100.00;101284.97;5023297;28;20498;-72
2022/11/20 01:04:41;;;;;;;0.30;0.30;;;;;;;-5.26;100.00;101246.69;5018769;28;20022;-72
2022/11/20 01:07:06;;;;;;;0.25;0.25;;;;;;;-5.04;100.00;101263.13;5021726;28;20372;-72
2022/11/20 01:09:32;;;;;;;0.30;0.30;;;;;;;-5.19;100.00;101237.91;5032251;28;20025;-72
2022/11/20 01:11:57;;;;;;;0.20;0.20;;;;;;;-5.16;100.00;101263.19;5017048;28;20048;-72
2022/11/20 01:14:22;;;;;;;0.22;0.22;;;;;;;-5.22;100.00;101264.09;5017350;28;20029;-72
2022/11/20 01:16:50;;;;;;;0.30;0.30;;;;;;;-5.13;100.00;101264.03;5004687;28;20044;-72
2022/11/20 01:19:17;;;;;;;0.30;0.30;;;;;;;-5.02;100.00;101271.81;5022186;28;20030;-72
2022/11/20 01:21:45;;;;;;;0.30;0.30;;;;;;;-5.05;100.00;101256.16;5026058;28;20025;-72
2022/11/20 01:24:13;;;;;;;0.30;0.30;;;;;;;-5.09;100.00;101262.28;5021230;28;20037;-72
2022/11/20 01:26:39;;;;;;;0.30;0.30;;;;;;;-5.24;100.00;101252.78;5007264;28;20125;-72
2022/11/20 01:29:06;;;;;;;0.22;0.22;;;;;;;-5.09;100.00;101262.28;5024151;28;20104;-72
2022/11/20 01:31:36;;;;;;;0.30;0.30;;;;;;;-5.26;100.00;101244.06;5026025;28;20471;-72
2022/11/20 01:34:04;;;;;;;0.30;0.30;;;;;;;-5.32;100.00;101242.34;5016369;28;20044;-72
2022/11/20 01:36:31;;;;;;;0.20;0.20;;;;;;;-5.20;100.00;101274.56;5019104;28;20065;-72
2022/11/20 01:38:59;;;;;;;0.30;0.30;;;;;;;-5.20;100.00;101274.56;5046624;28;20033;-72
2022/11/20 01:44:11;;;;;;;0.30;0.30;;;;;;;-5.23;100.00;101264.09;5030810;28;20126;-72
2022/11/20 01:46:38;;;;;;;0.30;0.30;;;;;;;-5.22;100.00;101273.69;5007250;28;20049;-72
2022/11/20 01:49:17;;;;;;;0.30;0.30;;;;;;;-5.30;100.00;101269.38;5021466;28;20052;-72
2022/11/20 01:51:46;;;;;;;0.30;0.30;;;;;;;-5.30;100.00;101277.25;5003405;28;20026;-72
2022/11/20 01:54:16;;;;;;;0.30;0.30;;;;;;;-5.30;100.00;101273.75;5024955;28;20145;-72
2022/11/20 01:56:43;;;;;;;0.30;0.30;;;;;;;-5.43;100.00;101247.63;5022743;28;20029;-72
2022/11/20 01:59:10;;;;;;;0.30;0.30;;;;;;;-5.32;100.00;101263.28;5023684;28;20412;-72
2022/11/20 02:01:36;;;;;;;0.30;0.30;;;;;;;-5.31;100.00;101266.75;5021526;28;20040;-72
2022/11/20 02:04:02;;;;;;;0.30;0.30;;;;;;;-5.29;100.00;101255.41;5021260;28;20029;-72
2022/11/20 02:06:35;;;;;;;0.30;0.30;;;;;;;-5.50;100.00;101216.25;5005040;28;20033;-72
2022/11/20 02:09:01;;;;;;;0.30;0.30;;;;;;;-5.42;100.00;101251.97;5017486;28;20029;-72
2022/11/20 02:11:26;;;;;;;0.30;0.30;;;;;;;-5.38;100.00;101251.97;5020845;28;20324;-72
2022/11/20 02:13:51;;;;;;;0.30;0.30;;;;;;;-5.32;100.00;101258.06;5005316;28;20037;-72
2022/11/20 02:16:26;;;;;;;0.30;0.30;;;;;;;-5.30;100.00;101269.38;5024046;28;20029;-72
2022/11/20 02:18:51;;;;;;;;;;;;;;;-5.30;100.00;101268.50;5016497;28;20084;-72
2022/11/20 02:21:35;;;;;;;0.30;0.30;;;;;;;-5.39;100.00;101247.59;5020891;28;20052;-72
2022/11/20 02:24:10;;;;;;;0.30;0.30;;;;;;;-5.44;100.00;101259.00;5019213;28;20033;-72
2022/11/20 02:26:40;;;;;;;;;;;;;;;-5.51;100.00;101249.41;5003924;28;20129;-72
2022/11/20 02:29:06;;;;;;;0.20;0.20;;;;;;;-5.74;100.00;101212.88;5021960;28;19917;-72
2022/11/20 02:31:38;;;;;;;0.30;0.30;;;;;;;-5.56;100.00;101251.19;5023713;28;20376;-72
2022/11/20 02:34:04;;;;;;;0.30;0.30;;;;;;;-5.97;100.00;101185.06;5019762;28;20044;-72
2022/11/20 02:36:32;;;;;;;0.30;0.30;;;;;;;-5.80;100.00;101254.75;5024014;28;20383;-72
2022/11/20 02:38:57;;;;;;;0.30;0.30;;;;;;;-5.85;100.00;101227.75;5019721;28;20032;-72
2022/11/20 02:41:30;;;;;;;0.30;0.30;;;;;;;-5.82;100.00;101217.25;5021984;28;20030;-72
2022/11/20 02:43:56;;;;;;;0.30;0.30;;;;;;;-5.98;100.00;101212.09;5006037;28;20034;-72
2022/11/20 02:46:21;;;;;;;0.30;0.30;;;;;;;-5.92;100.00;101230.41;5006303;28;20075;-72
2022/11/20 02:48:46;;;;;;;0.30;0.30;;;;;;;-5.88;100.00;101210.31;5020370;28;20042;-72
2022/11/20 02:51:12;;;;;;;0.30;0.30;;;;;;;-5.73;100.00;101227.69;5015897;28;20025;-72
2022/11/20 02:53:37;;;;;;;0.30;0.30;;;;;;;-5.70;100.00;101250.38;5020398;28;20033;-72
2022/11/20 02:56:02;;;;;;;0.30;0.30;;;;;;;-5.86;100.00;101239.94;5016981;28;20060;-72
2022/11/20 02:58:28;;;;;;;0.30;0.30;;;;;;;-5.64;100.00;101256.44;5017674;28;20033;-72
2022/11/20 03:00:53;;;;;;;0.30;0.30;;;;;;;-5.66;100.00;101236.38;5019391;28;20064;-72
2022/11/20 03:03:18;;;;;;;0.30;0.30;;;;;;;-5.63;100.00;101231.16;5023030;28;20037;-72
2022/11/20 03:05:44;;;;;;;0.30;0.30;;;;;;;-5.62;100.00;101241.63;5018162;28;20034;-72
2022/11/20 03:08:09;;;;;;;0.30;0.30;;;;;;;-5.61;100.00;101250.31;5021134;28;20032;-72
2022/11/20 03:10:34;;;;;;;0.30;0.30;;;;;;;-5.80;100.00;101239.06;5020206;28;20052;-72
2022/11/20 03:12:59;;;;;;;0.30;0.30;;;;;;;-5.68;100.00;101241.63;5023190;28;20372;-72
2022/11/20 03:15:25;;;;;;;0.30;0.30;;;;;;;-5.45;100.00;101248.50;5003115;28;20069;-72
2022/11/20 03:17:54;;;;;;;0.30;0.30;;;;;;;-5.39;100.00;101235.41;5019034;28;20068;-72
2022/11/20 03:20:19;;;;;;;0.30;0.30;;;;;;;-5.38;100.00;101229.28;5024163;28;20032;-72
2022/11/20 03:22:45;;;;;;;0.30;0.30;;;;;;;-5.26;100.00;101236.19;5021560;28;20029;-72
2022/11/20 03:25:10;;;;;;;0.30;0.30;;;;;;;-5.36;100.00;101235.38;5019357;28;20029;-72
2022/11/20 03:27:35;;;;;;;0.20;0.20;;;;;;;-5.42;100.00;101224.94;5022147;28;20039;-72
2022/11/20 03:30:01;;;;;;;0.30;0.30;;;;;;;-5.72;100.00;101205.91;5008397;28;20535;-72
2022/11/20 03:32:26;;;;;;;0.38;0.30;;;;;;;-5.57;100.00;101225.88;5025852;28;20479;-72
2022/11/20 03:34:51;;;;;;;0.30;0.30;;;;;;;-5.74;100.00;101226.84;5027479;28;20030;-72
2022/11/20 03:37:16;;;;;;;0.30;0.30;;;;;;;-5.88;100.00;101205.97;5025416;28;20454;-72
2022/11/20 03:39:42;;;;;;;0.30;0.30;;;;;;;-5.93;100.00;101188.53;5027867;28;20025;-72
2022/11/20 03:42:44;;;;;;;0.30;0.30;;;;;;;-5.70;100.00;101234.69;5021124;28;20037;-72
2022/11/20 03:44:53;;;;;;;0.30;0.30;;;;;;;-5.69;100.00;101234.66;5026267;28;20037;-72
2022/11/20 03:47:18;;;;;;;0.30;0.30;;;;;;;-5.72;100.00;101235.56;5029698;28;20184;-72
2022/11/20 03:49:44;;;;;;;0.30;0.30;;;;;;;-5.73;100.00;101219.84;5028409;28;20029;-72
2022/11/20 03:52:09;;;;;;;0.20;0.20;;;;;;;-6.00;100.00;101177.28;5024810;28;20032;-72
2022/11/20 03:54:34;;;;;;;0.30;0.30;;;;;;;-5.74;100.00;101216.38;5024266;28;20104;-72
2022/11/20 03:57:00;;;;;;;0.30;0.30;;;;;;;-5.87;100.00;101183.28;5025201;28;20072;-72
2022/11/20 03:59:25;;;;;;;0.30;0.30;;;;;;;-5.84;100.00;101205.97;5023949;28;20484;-72
2022/11/20 04:01:50;;;;;;;0.30;0.30;;;;;;;-5.96;100.00;101193.81;5003858;28;20135;-71
2022/11/20 04:04:16;;;;;;;0.30;0.30;;;;;;;-6.01;100.00;101180.75;5008945;28;20163;-71
2022/11/20 04:06:41;;;;;;;0.30;0.30;;;;;;;-5.78;100.00;101219.88;5022532;28;20033;-71
2022/11/20 04:09:06;;;;;;;0.30;0.30;;;;;;;-5.88;100.00;101187.66;5034620;28;20037;-71
2022/11/20 04:11:34;;;;;;;0.30;0.30;;;;;;;-5.77;100.00;101208.53;5007586;28;20163;-71
2022/11/20 04:14:01;;;;;;;0.30;0.30;;;;;;;-5.98;100.00;101178.09;5021239;28;20104;-71
2022/11/20 04:16:29;;;;;;;0.30;0.30;;;;;;;-5.85;100.00;101205.09;5006674;28;20483;-71
2022/11/20 04:18:56;;;;;;;0.30;0.30;;;;;;;-5.87;100.00;101191.13;5018619;28;20042;-71
2022/11/20 04:21:22;;;;;;;0.30;0.30;;;;;;;-5.90;100.00;101197.25;5025507;28;20037;-71
2022/11/20 04:23:48;;;;;;;0.30;0.30;;;;;;;-6.01;100.00;101172.06;5008414;28;20045;-71
2022/11/20 04:26:13;;;;;;;0.30;0.30;;;;;;;-6.08;100.00;101160.72;5031775;28;20033;-71
2022/11/20 04:28:40;;;;;;;0.30;0.30;;;;;;;-5.94;100.00;101198.16;5023917;28;20041;-71
2022/11/20 04:31:08;;;;;;;0.30;0.30;;;;;;;-6.00;100.00;101192.97;5019457;28;20459;-71
2022/11/20 04:33:34;;;;;;;0.30;0.30;;;;;;;-5.99;100.00;101196.44;5022276;28;20116;-71
2022/11/20 04:36:03;;;;;;;0.30;0.30;;;;;;;-6.09;100.00;101191.25;5005649;28;20484;-71
2022/11/20 04:38:29;;;;;;;0.30;0.30;;;;;;;-6.19;100.00;101160.78;5013384;28;20064;-71
2022/11/20 04:41:02;;;;;;;0.30;0.30;;;;;;;-5.99;100.00;101194.66;5010155;28;20120;-71
2022/11/20 04:43:28;;;;;;;0.30;0.30;;;;;;;-6.23;100.00;101156.47;5006550;28;20473;-71
2022/11/20 04:45:54;;;;;;;0.30;0.30;;;;;;;-6.02;100.00;101181.63;5009363;28;20508;-71
2022/11/20 04:48:20;;;;;;;0.30;0.30;;;;;;;-6.00;100.00;101182.50;5022194;28;20029;-71
2022/11/20 04:50:45;;;;;;;0.30;0.30;;;;;;;-6.09;100.00;101178.19;5022318;28;20075;-71
2022/11/20 04:53:11;;;;;;;0.30;0.30;;;;;;;-6.01;100.00;101187.75;5026433;28;20463;-71
2022/11/20 04:55:36;;;;;;;0.30;0.30;;;;;;;-6.08;100.00;101181.66;5009627;28;20074;-71
2022/11/20 04:58:01;;;;;;;0.32;0.32;;;;;;;-6.13;100.00;101184.28;5018003;28;20022;-71
2022/11/20 05:00:27;;;;;;;0.32;0.32;;;;;;;-6.10;100.00;101179.06;5006944;28;20138;-71
2022/11/20 05:02:52;;;;;;;0.30;0.30;;;;;;;-6.24;100.00;101186.09;5019502;28;20033;-71
2022/11/20 05:05:18;;;;;;;0.30;0.30;;;;;;;-6.26;100.00;101188.69;5022638;28;20526;-71
2022/11/20 05:07:43;;;;;;;0.30;0.30;;;;;;;-6.24;100.00;101181.72;5029861;28;20021;-71
2022/11/20 05:10:08;;;;;;;0.30;0.30;;;;;;;-6.27;100.00;101179.09;5006278;28;20036;-71
2022/11/20 05:12:34;;;;;;;0.30;0.30;;;;;;;-6.38;100.00;101155.63;5022364;28;20033;-71
2022/11/20 05:14:59;;;;;;;0.30;0.30;;;;;;;-6.53;100.00;101180.03;5020722;28;20116;-71
2022/11/20 05:17:24;;;;;;;0.30;0.30;;;;;;;-6.57;100.00;101165.22;5007536;28;20351;-71
2022/11/20 05:19:50;;;;;;;0.30;0.30;;;;;;;-6.30;100.00;101159.97;5019649;28;20068;-71
2022/11/20 05:22:15;;;;;;;0.30;0.30;;;;;;;-6.29;100.00;101169.53;5027539;28;20484;-71
2022/11/20 05:24:40;;;;;;;0.30;0.30;;;;;;;-6.39;100.00;101143.41;5019755;28;20033;-71
2022/11/20 05:27:06;;;;;;;0.30;0.30;;;;;;;-6.34;100.00;101165.19;5028823;28;20037;-71
2022/11/20 05:29:31;;;;;;;0.25;0.25;;;;;;;-6.28;100.00;101159.06;5021714;28;20479;-71
2022/11/20 05:31:56;;;;;;;0.30;0.30;;;;;;;-6.38;100.00;101154.75;5023885;28;20119;-71
2022/11/20 05:34:21;;;;;;;0.32;0.32;;;;;;;-6.47;100.00;101134.72;5023046;28;20033;-71
2022/11/20 05:36:47;;;;;;;0.30;0.30;;;;;;;-6.72;100.00;101115.63;5022271;28;20041;-71
2022/11/20 05:39:12;;;;;;;0.30;0.30;;;;;;;-6.81;100.00;101138.28;5024260;28;20036;-71
2022/11/20 05:41:37;;;;;;;0.30;0.30;;;;;;;-6.83;100.00;101128.72;5026895;28;20040;-71
2022/11/20 05:44:03;;;;;;;0.30;0.30;;;;;;;-6.90;100.00;101140.91;5020348;28;20036;-71
2022/11/20 05:46:28;;;;;;;0.30;0.30;;;;;;;-6.76;100.00;101159.19;5022933;28;20534;-71
2022/11/20 05:48:53;;;;;;;0.30;0.30;;;;;;;-6.75;100.00;101155.66;5031807;28;20063;-71
2022/11/20 05:51:19;;;;;;;0.30;0.30;;;;;;;-6.58;100.00;101160.03;5026394;28;20029;-71
2022/11/20 05:53:45;;;;;;;0.30;0.30;;;;;;;-6.82;100.00;101125.25;5023984;28;20036;-71
2022/11/20 05:56:12;;;;;;;0.30;0.30;;;;;;;-6.41;100.00;101165.22;5020137;28;20685;-71
2022/11/20 05:58:38;;;;;;;0.30;0.30;;;;;;;-6.30;100.00;101155.59;5022263;28;20033;-71
2022/11/20 06:01:21;;;;;;;0.30;0.30;;;;;;;-6.31;100.00;101143.38;5019648;28;20531;-72
2022/11/20 06:03:47;;;;;;;0.30;0.30;;;;;;;-6.11;100.00;101171.22;5018699;28;20034;-71
2022/11/20 06:06:14;;;;;;;0.30;0.30;;;;;;;-6.18;100.00;101145.09;5017581;28;21726;-71
2022/11/20 06:08:39;;;;;;;0.30;0.30;;;;;;;-6.22;100.00;101150.31;5021218;28;20033;-72
2022/11/20 06:11:06;;;;;;;0.30;0.30;;;;;;;-6.09;100.00;101153.81;5020578;28;20040;-72
2022/11/20 06:13:31;;;;;;;0.30;0.30;;;;;;;-6.18;100.00;101141.59;5020641;28;20532;-71
2022/11/20 06:15:57;;;;;;;0.30;0.30;;;;;;;-6.04;100.00;101176.44;5017092;28;20037;-72
2022/11/20 06:18:22;;;;;;;0.30;0.30;;;;;;;-6.10;100.00;101171.22;5007305;28;20033;-72
2022/11/20 06:20:47;;;;;;;0.30;0.30;;;;;;;-6.00;100.00;101182.50;5024361;28;20103;-72
2022/11/20 06:23:14;;;;;;;0.30;0.30;;;;;;;-5.98;100.00;101185.94;5023556;28;20049;-72
2022/11/20 06:25:40;;;;;;;0.30;0.30;;;;;;;-5.98;100.00;101175.50;5007057;28;20935;-72
2022/11/20 06:28:06;;;;;;;0.32;0.32;;;;;;;-6.10;100.00;101181.66;5022984;28;20037;-72
2022/11/20 06:30:31;;;;;;;0.35;0.35;;;;;;;-6.09;100.00;101182.56;5022528;28;20562;-72
2022/11/20 06:32:56;;;;;;;0.30;0.30;;;;;;;-6.09;100.00;101183.41;5005489;28;20037;-72
2022/11/20 06:35:22;;;;;;;0.30;0.30;;;;;;;-6.20;100.00;101164.25;5023561;28;20060;-72
2022/11/20 06:37:47;;;;;;;0.30;0.30;;;;;;;-6.08;100.00;101184.25;5018693;28;20072;-72
2022/11/20 06:40:12;;;;;;;0.30;0.30;;;;;;;-5.98;100.00;101185.09;5023933;28;20124;-72
2022/11/20 06:42:38;;;;;;;0.30;0.30;;;;;;;-5.90;100.00;101180.69;5032654;28;20053;-72
2022/11/20 06:45:03;;;;;;;0.30;0.30;;;;;;;-5.90;100.00;101183.31;5015710;28;20041;-72
2022/11/20 06:47:28;;;;;;;0.30;0.30;;;;;;;-5.94;100.00;101158.03;5022127;28;20043;-72
2022/11/20 06:49:54;;;;;;;0.30;0.30;;;;;;;-5.82;100.00;101173.69;5022088;28;20041;-72
2022/11/20 06:52:19;;;;;;;0.30;0.30;;;;;;;-5.78;100.00;101180.66;5016660;28;20040;-72
2022/11/20 06:54:44;;;;;;;0.30;0.30;;;;;;;-5.75;100.00;101170.16;5028040;28;20038;-72
2022/11/20 06:57:10;;;;;;;0.30;0.30;;;;;;;-5.96;100.00;101150.22;5007888;28;20111;-72
2022/11/20 06:59:35;;;;;;;0.30;0.30;;;;;;;-5.89;100.00;101166.72;5018482;28;20033;-72
2022/11/20 07:02:00;;;;;;;0.30;0.30;;;;;;;-5.98;100.00;101167.66;5020365;28;20449;-72
2022/11/20 07:04:25;;;;;;;0.30;0.30;;;;;;;-5.91;100.00;101168.47;5025392;28;20113;-72
2022/11/20 07:06:51;;;;;;;0.30;0.30;;;;;;;-5.93;100.00;101168.50;5026627;28;20042;-72
2022/11/20 07:09:16;;;;;;;0.30;0.30;;;;;;;-5.78;100.00;101182.38;5026803;28;20490;-72
2022/11/20 07:11:41;;;;;;;0.30;0.30;;;;;;;-5.77;100.00;101171.03;5022594;28;20432;-72
2022/11/20 07:14:07;;;;;;;0.30;0.30;;;;;;;-5.82;100.00;101149.25;5021485;28;20503;-72
2022/11/20 07:16:32;;;;;;;0.30;0.30;;;;;;;-5.77;100.00;101139.66;5020836;28;20073;-72
2022/11/20 07:18:57;;;;;;;0.30;0.30;;;;;;;-5.53;100.00;101146.50;5024096;28;20426;-72
2022/11/20 07:21:23;;;;;;;0.30;0.30;;;;;;;-5.28;100.00;101164.66;5032827;28;20043;-72
2022/11/20 07:23:48;;;;;;;0.30;0.30;;;;;;;-5.23;100.00;101159.38;5028670;28;20065;-72
2022/11/20 07:26:13;;;;;;;0.30;0.30;;;;;;;-5.26;100.00;101134.09;5033452;28;20063;-72
2022/11/20 07:28:38;;;;;;;0.30;0.30;;;;;;;-5.12;100.00;101147.94;5029790;28;20503;-72
2022/11/20 07:31:04;;;;;;;0.30;0.30;;;;;;;-4.93;100.00;101166.16;5023510;28;20119;-72
2022/11/20 07:33:30;;;;;;;0.30;0.30;;;;;;;-4.96;100.00;101153.06;5022633;28;20339;-72
2022/11/20 07:35:55;;;;;;;0.30;0.30;;;;;;;-4.98;100.00;101134.75;5025740;28;20106;-70
2022/11/20 07:38:20;;;;;;;0.30;0.30;;;;;;;-4.76;100.00;101168.59;5022043;28;20045;-72
2022/11/20 07:40:46;;;;;;;0.30;0.30;;;;;;;-4.77;100.00;101166.88;5037149;28;20145;-71
2022/11/20 07:43:11;;;;;;;0.30;0.30;;;;;;;-4.64;100.00;101169.38;5023923;28;20937;-72
2022/11/20 07:45:36;;;;;;;0.30;0.30;;;;;;;-4.60;100.00;101164.09;5008382;28;20068;-73
2022/11/20 07:48:02;;;;;;;0.30;0.30;;;;;;;-4.49;100.00;101166.59;5022593;28;20033;-73
2022/11/20 07:50:27;;;;;;;0.30;0.30;;;;;;;-4.55;100.00;101151.81;5022949;28;20025;-73
2022/11/20 07:53:00;;;;;;;0.30;0.30;;;;;;;-4.31;100.00;101159.44;5028374;28;20075;-73
2022/11/20 07:55:25;;;;;;;0.30;0.30;;;;;;;-4.23;100.00;101149.72;5026431;28;20067;-73
2022/11/20 07:57:55;;;;;;;0.30;0.30;;;;;;;-4.31;100.00;101126.22;5016972;28;20037;-73
2022/11/20 08:00:20;;;;;;;0.30;0.30;;;;;;;-3.89;100.00;101161.59;5024540;28;20033;-73
2022/11/20 08:02:46;;;;;;;0.30;0.30;;;;;;;-3.75;100.00;101158.78;5023520;28;20498;-73
2022/11/20 08:05:11;;;;;;;0.25;0.25;;;;;;;-3.79;100.00;101139.56;5015733;28;20032;-73
2022/11/20 08:07:41;;;;;;;0.30;0.30;;;;;;;-3.76;100.00;101129.03;5016955;28;20111;-73
2022/11/20 08:10:08;;;;;;;0.30;0.30;;;;;;;-3.53;100.00;101162.84;5018671;28;20036;-73
2022/11/20 08:15:17;;;;;;;0.30;0.30;;;;;;;-3.67;100.00;101139.41;5018407;28;20040;-73
2022/11/20 08:17:42;;;;;;;0.30;0.30;;;;;;;-3.71;100.00;101140.34;5023203;28;20033;-73
2022/11/20 08:20:08;;;;;;;0.30;0.30;;;;;;;-3.40;100.00;101162.66;5017217;28;20029;-73
2022/11/20 08:22:33;;;;;;;0.30;0.30;;;;;;;-3.17;100.00;101154.44;5021102;28;20481;-74
2022/11/20 08:24:59;;;;;;;0.20;0.20;;;;;;;-3.17;100.00;101157.91;5022891;28;20033;-72
2022/11/20 08:27:24;;;;;;;0.30;0.30;;;;;;;-3.18;100.00;101136.94;5023443;28;20075;-72
2022/11/20 08:29:49;;;;;;;0.25;0.25;;;;;;;-2.96;100.00;101153.22;5019493;28;20112;-71
2022/11/20 08:32:15;;;;;;;0.22;0.22;;;;;;;-2.84;100.00;101152.16;5023428;28;20468;-72
2022/11/20 08:34:40;;;;;;;0.30;0.30;;;;;;;-2.74;100.00;101126.59;5023460;28;20034;-72
2022/11/20 08:37:05;;;;;;;0.22;0.22;;;;;;;-2.55;100.00;101127.13;5016006;28;20499;-72
2022/11/20 08:39:31;;;;;;;0.20;0.20;;;;;;;-2.36;100.00;101135.50;5023968;28;20061;-73
2022/11/20 08:41:56;;;;;;;0.25;0.25;;;;;;;-2.27;100.00;101132.69;5017636;28;20033;-77
2022/11/20 08:44:22;;;;;;;0.30;0.30;;;;;;;-2.27;100.00;101123.97;5016807;28;21479;-75
2022/11/20 08:46:47;;;;;;;0.20;0.20;;;;;;;-2.20;100.00;101124.69;5022558;28;20049;-76
2022/11/20 08:49:13;;;;;;;0.20;0.20;;;;;;;-2.03;100.00;101138.38;5022797;28;20063;-73
2022/11/20 08:51:39;;;;;;;0.30;0.30;;;;;;;-1.97;100.00;101140.00;5022328;28;20037;-76
2022/11/20 08:54:05;;;;;;;0.20;0.20;;;;;;;-2.05;100.00;101111.22;5019608;28;20029;-75
2022/11/20 08:56:31;;;;;;;0.20;0.20;;;;;;;-1.88;100.00;101133.69;5015897;28;20028;-76
2022/11/20 08:58:56;;;;;;;0.20;0.20;;;;;;;-1.79;100.00;101137.91;5017972;28;20100;-78
2022/11/20 09:01:25;;;;;;;0.30;0.30;;;;;;;-1.84;100.00;101112.53;5003677;28;20033;-76
2022/11/20 09:03:51;;;;;;;0.20;0.20;;;;;;;-1.63;100.00;101141.91;5017619;28;20087;-76
2022/11/20 09:06:16;;;;;;;0.30;0.30;;;;;;;-1.59;100.00;101138.31;5016685;28;20033;-76
2022/11/20 09:08:42;;;;;;;0.20;0.20;;;;;;;-1.57;100.00;101119.84;5023778;28;20484;-77
2022/11/20 09:11:07;;;;;;;0.30;0.30;;;;;;;-1.61;100.00;101134.84;5018185;28;20088;-77
2022/11/20 09:13:34;;;;;;;0.20;0.20;;;;;;;-1.58;100.00;101132.16;5023727;28;20110;-76
2022/11/20 09:16:02;;;;;;;0.20;0.20;;;;;;;-1.58;100.00;101133.91;5019717;28;20037;-76
2022/11/20 09:18:28;;;;;;;0.20;0.20;;;;;;;-1.57;100.00;101122.47;5006806;28;20033;-77
2022/11/20 09:21:00;;;;;;;0.20;0.20;;;;;;;-1.43;100.00;101120.41;5022504;28;20026;-76
2022/11/20 09:23:26;;;;;;;0.20;0.20;;;;;;;-1.24;100.00;101115.56;5018606;28;20052;-76
2022/11/20 09:25:52;;;;;;;0.20;0.20;;;;;;;-1.18;100.00;101113.66;5012215;28;20036;-76
2022/11/20 09:28:18;;;;;;;0.20;0.20;;;;;;;-1.13;100.00;101104.75;5014647;28;20451;-77
2022/11/20 09:30:43;;;;;;;0.20;0.20;;;;;;;-1.22;100.00;101094.44;5019264;28;20348;-77
2022/11/20 09:33:09;;;;;;;0.20;0.20;;;;;;;-1.14;100.00;101104.78;5020239;28;20071;-77
2022/11/20 09:35:34;;;;;;;0.22;0.22;;;;;;;-1.19;100.00;101081.19;4996500;28;20037;-77
2022/11/20 09:38:07;;;;;;;0.30;0.30;;;;;;;-1.10;100.00;101069.53;5027074;28;20061;-77
2022/11/20 09:40:34;;;;;;;0.20;0.20;;;;;;;-0.87;100.00;101089.16;5004023;28;20041;-77
2022/11/20 09:43:28;;;;;;;0.20;0.20;;;;;;;-0.84;100.00;101111.06;5026720;28;20033;-78
2022/11/20 09:46:19;;;;;;;0.20;0.20;;;;;;;-0.82;100.00;101098.72;5017562;28;20034;-76
2022/11/20 09:48:47;;;;;;;0.20;0.20;;;;;;;-0.66;100.00;101091.22;5019149;28;20042;-76
2022/11/20 09:51:45;;;;;;;0.20;0.20;;;;;;;-0.90;100.00;101069.03;5013608;28;20021;-75
2022/11/20 09:54:17;;;;;;;0.20;0.20;;;;;;;-0.57;100.00;101068.16;5015545;28;20475;-75
2022/11/20 09:56:45;;;;;;;0.20;0.20;;;;;;;-0.73;100.00;101078.25;5000681;28;20731;-75
2022/11/20 09:59:31;;;;;;;0.25;0.25;;;;;;;-0.73;100.00;101067.72;5019309;28;20395;-75
2022/11/20 10:01:56;;;;;;;0.20;0.20;;;;;;;-0.61;100.00;101094.63;5014619;28;20036;-76
2022/11/20 10:04:22;;;;;;;0.20;0.20;;;;;;;-0.65;100.00;101094.75;5020407;28;20444;-76
2022/11/20 10:07:07;;;;;;;0.20;0.20;;;;;;;-0.62;100.00;101087.59;5000266;28;20041;-77
2022/11/20 10:09:36;;;;;;;0.22;0.22;;;;;;;-0.39;100.00;101098.44;5016230;28;20496;-75
2022/11/20 10:12:23;;;;;;;0.20;0.20;;;;;;;-0.32;100.00;101074.47;5014904;28;20546;-76
2022/11/20 10:14:57;;;;;;;0.28;0.28;;;;;;;-0.34;100.00;101063.09;5006987;28;20451;-76
2022/11/20 10:17:53;;;;;;;0.20;0.20;;;;;;;-0.03;100.00;101074.56;5012479;28;20022;-76
2022/11/20 10:20:46;;;;;;;0.20;0.20;;;;;;;0.04;100.00;101069.94;5014402;28;20037;-77
2022/11/20 10:23:16;;;;;;;0.20;0.20;;;;;;;0.14;100.00;101059.06;5013604;28;20025;-77
2022/11/20 10:26:00;;;;;;;0.20;0.20;;;;;;;0.17;100.00;101036.94;5012305;28;20025;-78
2022/11/20 10:28:29;;;;;;;0.20;0.20;;;;;;;0.35;100.00;101047.88;5017753;28;20391;-76
2022/11/20 10:31:02;;;;;;;0.20;0.20;;;;;;;0.45;100.00;101051.94;5018694;28;20037;-77
2022/11/20 10:33:32;;;;;;;0.20;0.20;;;;;;;0.40;100.00;101043.28;5020287;28;20133;-76
2022/11/20 10:36:17;;;;;;;0.28;0.28;;;;;;;-0.01;100.00;100989.09;4998385;28;20117;-76
2022/11/20 10:38:50;;;;;;;0.25;0.25;;;;;;;0.45;100.00;101030.78;5022310;28;20646;-77
2022/11/20 10:41:26;;;;;;;0.20;0.20;;;;;;;0.54;100.00;101022.56;5014870;28;20033;-75
2022/11/20 10:44:15;;;;;;;0.20;0.20;;;;;;;0.48;100.00;101017.50;4998803;28;20040;-74
2022/11/20 10:46:44;;;;;;;0.20;0.20;;;;;;;0.65;100.00;101006.34;5014308;28;20535;-73
2022/11/20 10:49:15;;;;;;;0.20;0.20;;;;;;;0.55;100.00;100971.47;5016063;28;20040;-74
2022/11/20 10:51:59;;;;;;;0.20;0.20;;;;;;;0.68;100.00;100995.69;5019312;28;20682;-73
2022/11/20 10:54:40;;;;;;;0.20;0.20;;;;;;;0.90;100.00;100984.38;5025768;28;20072;-73
2022/11/20 10:57:36;;;;;;;0.20;0.20;;;;;;;0.71;100.00;100989.41;5030243;28;20140;-73
2022/11/20 11:00:06;;;;;;;0.20;0.20;;;;;;;0.77;100.00;100973.34;4994040;28;20064;-74
2022/11/20 11:03:05;;;;;;;0.20;0.20;;;;;;;0.86;100.00;100972.16;5017259;28;20152;-74
2022/11/20 11:05:39;;;;;;;0.22;0.22;;;;;;;0.89;100.00;100964.13;5003631;28;20044;-73
2022/11/20 11:08:09;;;;;;;0.20;0.20;;;;;;;0.83;100.00;100952.00;5024648;28;20026;-74
2022/11/20 11:10:54;;;;;;;0.20;0.20;;;;;;;0.91;100.00;100933.22;5003540;28;20071;-72
2022/11/20 11:13:25;;;;;;;0.20;0.20;;;;;;;1.20;100.00;100957.75;5005203;28;20034;-73
2022/11/20 11:15:50;;;;;;;0.20;0.20;;;;;;;1.13;100.00;100943.88;5005501;28;20029;-73
2022/11/20 11:18:27;;;;;;;0.20;0.20;;;;;;;1.26;100.00;100946.94;5025226;28;20044;-73
2022/11/20 11:20:54;;;;;;;0.20;0.20;;;;;;;0.94;100.00;100919.88;5022285;28;20029;-73
2022/11/20 11:23:39;;;;;;;0.20;0.20;;;;;;;1.09;100.00;100923.75;5005359;28;20045;-74
2022/11/20 11:26:25;;;;;;;0.28;0.28;;;;;;;1.33;100.00;100924.59;5019234;28;20136;-73
2022/11/20 11:28:58;;;;;;;0.20;0.20;;;;;;;1.52;100.00;100926.56;5022186;28;20073;-73